createdAt,value
2019-04-11T00:01:14.642Z,24.83
2019-04-11T00:03:42.259Z,23.17
2019-04-11T00:06:11.736Z,22.37
2019-04-11T00:08:38.588Z,23.03
2019-04-11T00:11:05.957Z,25.43
2019-04-11T00:13:35.180Z,26.83
2019-04-11T00:16:01.314Z,24.63
2019-04-11T00:18:28.921Z,24.67
2019-04-11T00:20:56.501Z,24.25
2019-04-11T00:23:24.073Z,24.03
2019-04-11T00:25:51.729Z,30.03
2019-04-11T00:28:19.422Z,23.53
2019-04-11T00:30:46.854Z,23.10
2019-04-11T00:33:14.483Z,24.87
2019-04-11T00:35:42.066Z,22.97
2019-04-11T00:38:09.865Z,23.03
2019-04-11T00:40:37.484Z,24.67
2019-04-11T00:43:05.209Z,25.03
2019-04-11T00:45:32.421Z,26.80
2019-04-11T00:48:00.034Z,23.67
2019-04-11T00:50:28.646Z,26.63
2019-04-11T00:52:55.812Z,25.37
2019-04-11T00:55:23.832Z,25.40
2019-04-11T00:57:50.747Z,24.40
2019-04-11T01:00:18.672Z,25.20
2019-04-11T01:02:45.945Z,25.73
2019-04-11T01:05:13.520Z,24.37
2019-04-11T01:07:41.112Z,26.13
2019-04-11T01:10:09.819Z,27.00
2019-04-11T01:12:37.075Z,23.13
2019-04-11T01:15:07.341Z,23.53
2019-04-11T01:17:35.007Z,24.47
2019-04-11T01:20:02.965Z,25.77
2019-04-11T01:22:30.157Z,24.83
2019-04-11T01:24:58.542Z,26.67
2019-04-11T01:27:26.888Z,24.67
2019-04-11T01:29:55.471Z,22.83
2019-04-11T01:32:22.849Z,25.27
2019-04-11T01:34:50.936Z,27.62
2019-04-11T01:37:18.004Z,26.90
2019-04-11T01:39:49.618Z,22.80
2019-04-11T01:42:17.667Z,25.25
2019-04-11T01:44:45.860Z,26.03
2019-04-11T01:47:12.954Z,23.63
2019-04-11T01:49:40.724Z,23.63
2019-04-11T01:52:08.280Z,23.77
2019-04-11T01:54:35.863Z,25.47
2019-04-11T01:57:03.547Z,26.10
2019-04-11T01:59:31.266Z,22.17
2019-04-11T02:02:05.342Z,25.13
2019-04-11T02:04:44.014Z,29.65
2019-04-11T02:07:12.218Z,24.40
2019-04-11T02:09:40.087Z,26.17
2019-04-11T02:12:06.855Z,26.30
2019-04-11T02:14:35.407Z,26.45
2019-04-11T02:17:02.195Z,24.10
2019-04-11T02:19:29.539Z,24.80
2019-04-11T02:21:57.951Z,29.60
2019-04-11T02:24:25.790Z,27.17
2019-04-11T02:27:00.856Z,25.50
2019-04-11T02:29:29.832Z,29.40
2019-04-11T02:32:01.241Z,25.30
2019-04-11T02:34:25.319Z,26.80
2019-04-11T02:36:53.796Z,25.27
2019-04-11T02:39:22.187Z,27.50
2019-04-11T02:41:48.039Z,26.07
2019-04-11T02:44:32.077Z,25.07
2019-04-11T02:46:53.220Z,28.57
2019-04-11T02:49:10.844Z,25.03
2019-04-11T02:51:38.917Z,28.83
2019-04-11T02:54:06.927Z,28.67
2019-04-11T02:56:35.368Z,28.33
2019-04-11T02:59:02.257Z,29.00
2019-04-11T03:01:28.963Z,26.77
2019-04-11T03:03:59.053Z,26.97
2019-04-11T03:06:25.819Z,29.20
2019-04-11T03:08:53.093Z,29.43
2019-04-11T03:11:21.855Z,25.20
2019-04-11T03:13:48.686Z,23.87
2019-04-11T03:16:29.702Z,25.23
2019-04-11T03:19:02.408Z,30.20
2019-04-11T03:21:14.430Z,26.23
2019-04-11T03:23:39.621Z,28.63
2019-04-11T03:26:07.654Z,30.60
2019-04-11T03:28:35.899Z,26.97
2019-04-11T03:31:37.695Z,27.17
2019-04-11T03:36:53.913Z,29.37
2019-04-11T03:38:48.206Z,27.03
2019-04-11T03:41:14.279Z,27.53
2019-04-11T03:43:34.129Z,26.40
2019-04-11T03:46:11.832Z,27.13
2019-04-11T03:48:29.123Z,28.00
2019-04-11T03:50:44.831Z,27.70
2019-04-11T03:53:11.745Z,27.30
2019-04-11T03:55:39.607Z,27.17
2019-04-11T03:58:08.532Z,25.03
2019-04-11T04:00:37.235Z,28.40
2019-04-11T04:03:04.578Z,26.67
2019-04-11T04:05:34.048Z,27.87
2019-04-11T04:07:59.669Z,25.33
2019-04-11T04:10:25.953Z,26.37
2019-04-11T04:12:53.841Z,29.00
2019-04-11T04:15:42.125Z,25.67
2019-04-11T04:18:00.807Z,31.98
2019-04-11T04:20:46.934Z,27.53
2019-04-11T04:23:18.917Z,31.43
2019-04-11T04:25:47.147Z,31.15
2019-04-11T04:28:14.245Z,27.23
2019-04-11T04:30:41.095Z,25.57
2019-04-11T04:33:10.107Z,27.37
2019-04-11T04:35:36.347Z,26.37
2019-04-11T04:38:05.185Z,30.10
2019-04-11T04:40:49.574Z,26.23
2019-04-11T04:43:01.232Z,30.98
2019-04-11T04:45:27.802Z,29.93
2019-04-11T04:48:02.939Z,28.27
2019-04-11T04:50:24.132Z,25.67
2019-04-11T04:52:51.605Z,27.90
2019-04-11T04:55:19.493Z,27.90
2019-04-11T04:57:45.694Z,31.33
2019-04-11T05:00:14.968Z,30.63
2019-04-11T05:02:44.083Z,29.97
2019-04-11T05:05:11.337Z,29.73
2019-04-11T05:07:40.407Z,26.03
2019-04-11T05:10:07.298Z,32.77
2019-04-11T05:12:34.451Z,30.17
2019-04-11T05:15:01.476Z,29.07
2019-04-11T05:17:29.066Z,26.93
2019-04-11T05:19:56.494Z,31.63
2019-04-11T05:22:24.662Z,27.57
2019-04-11T05:24:53.647Z,28.37
2019-04-11T05:27:20.949Z,27.53
2019-04-11T05:29:47.692Z,29.37
2019-04-11T05:32:15.488Z,27.40
2019-04-11T05:34:43.522Z,30.30
2019-04-11T05:37:11.065Z,30.20
2019-04-11T05:39:38.147Z,28.47
2019-04-11T05:42:07.062Z,30.53
2019-04-11T05:44:35.247Z,27.80
2019-04-11T05:47:04.159Z,30.00
2019-04-11T05:49:37.309Z,24.50
2019-04-11T05:52:04.410Z,28.70
2019-04-11T05:54:43.948Z,28.60
2019-04-11T05:57:09.118Z,28.37
2019-04-11T05:59:41.143Z,29.23
2019-04-11T06:02:11.060Z,28.53
2019-04-11T06:04:48.902Z,28.67
2019-04-11T06:07:23.210Z,32.00
2019-04-11T06:09:53.164Z,25.87
2019-04-11T06:12:23.362Z,28.60
2019-04-11T06:15:08.023Z,30.08
2019-04-11T06:17:34.832Z,27.00
2019-04-11T06:20:06.055Z,25.83
2019-04-11T06:22:32.578Z,24.87
2019-04-11T06:25:03.537Z,27.87
2019-04-11T06:27:30.583Z,25.60
2019-04-11T06:30:01.314Z,26.03
2019-04-11T06:32:34.255Z,27.03
2019-04-11T06:35:01.941Z,28.47
2019-04-11T06:37:32.191Z,26.53
2019-04-11T06:40:00.829Z,22.73
2019-04-11T06:42:33.234Z,28.67
2019-04-11T06:45:19.698Z,26.17
2019-04-11T06:47:55.491Z,31.23
2019-04-11T06:50:23.107Z,24.87
2019-04-11T06:52:50.937Z,24.67
2019-04-11T06:55:22.365Z,25.00
2019-04-11T06:57:49.704Z,22.63
2019-04-11T07:00:16.983Z,25.50
2019-04-11T07:02:44.747Z,31.63
2019-04-11T07:05:12.383Z,21.73
2019-04-11T07:07:40.913Z,23.20
2019-04-11T07:10:07.591Z,21.93
2019-04-11T07:12:40.873Z,19.70
2019-04-11T07:15:12.134Z,18.13
2019-04-11T07:17:57.074Z,20.92
2019-04-11T07:20:43.593Z,17.90
2019-04-11T07:23:30.706Z,20.60
2019-04-11T07:26:12.386Z,20.98
2019-04-11T07:28:40.017Z,21.52
2019-04-11T07:31:25.641Z,19.77
2019-04-11T07:34:10.549Z,17.50
2019-04-11T07:36:46.440Z,17.27
2019-04-11T07:39:14.635Z,18.50
2019-04-11T07:41:43.325Z,17.73
2019-04-11T07:44:09.256Z,15.00
2019-04-11T07:46:40.745Z,20.30
2019-04-11T07:49:08.223Z,16.00
2019-04-11T07:51:36.568Z,17.13
2019-04-11T07:54:04.801Z,16.42
2019-04-11T07:56:41.860Z,15.82
2019-04-11T07:59:10.992Z,13.27
2019-04-11T08:01:50.621Z,15.10
2019-04-11T08:04:17.836Z,18.25
2019-04-11T08:06:54.443Z,24.75
2019-04-11T08:09:31.341Z,30.13
2019-04-11T08:11:58.912Z,15.18
2019-04-11T08:14:42.464Z,12.87
2019-04-11T08:17:09.642Z,13.90
2019-04-11T08:19:42.923Z,12.63
2019-04-11T08:22:16.961Z,16.90
2019-04-11T08:24:56.588Z,9.43
2019-04-11T08:27:33.724Z,11.17
2019-04-11T08:30:03.364Z,13.27
2019-04-11T08:32:50.262Z,10.40
2019-04-11T08:35:17.825Z,12.87
2019-04-11T08:37:52.035Z,14.63
2019-04-11T08:40:19.909Z,13.37
2019-04-11T08:43:06.579Z,14.00
2019-04-11T08:45:33.920Z,31.60
2019-04-11T08:48:00.570Z,11.63
2019-04-11T08:50:28.309Z,15.47
2019-04-11T08:52:58.787Z,11.53
2019-04-11T08:55:27.335Z,28.27
2019-04-11T08:57:54.033Z,15.80
2019-04-11T09:00:28.743Z,12.43
2019-04-11T09:02:57.473Z,15.23
2019-04-11T09:05:27.127Z,11.68
2019-04-11T09:07:55.861Z,12.57
2019-04-11T09:10:40.274Z,12.77
2019-04-11T09:13:08.994Z,14.60
2019-04-11T09:15:53.946Z,10.37
2019-04-11T09:18:21.886Z,25.63
2019-04-11T09:20:49.379Z,11.77
2019-04-11T09:23:17.656Z,9.70
2019-04-11T09:25:57.202Z,12.30
2019-04-11T09:28:24.935Z,11.67
2019-04-11T09:30:56.908Z,14.70
2019-04-11T09:33:39.627Z,11.87
2019-04-11T09:36:24.063Z,12.90
2019-04-11T09:39:00.658Z,10.87
2019-04-11T09:41:34.474Z,11.43
2019-04-11T09:44:17.110Z,13.62
2019-04-11T09:46:44.702Z,13.33
2019-04-11T09:49:15.032Z,13.63
2019-04-11T09:51:58.711Z,12.60
2019-04-11T09:54:26.318Z,13.23
2019-04-11T09:57:12.144Z,13.43
2019-04-11T09:59:54.482Z,14.00
2019-04-11T10:02:39.989Z,14.20
2019-04-11T10:05:09.499Z,16.20
2019-04-11T10:07:35.915Z,13.27
2019-04-11T10:10:06.063Z,16.07
2019-04-11T10:12:52.069Z,12.67
2019-04-11T10:15:20.963Z,12.90
2019-04-11T10:18:05.560Z,14.90
2019-04-11T10:20:33.183Z,14.23
2019-04-11T10:23:04.882Z,11.73
2019-04-11T10:25:32.100Z,13.10
2019-04-11T10:28:17.415Z,13.62
2019-04-11T10:30:48.158Z,12.07
2019-04-11T10:33:14.975Z,16.83
2019-04-11T10:36:00.827Z,13.87
2019-04-11T10:38:28.671Z,14.97
2019-04-11T10:40:58.777Z,15.80
2019-04-11T10:43:26.704Z,15.77
2019-04-11T10:45:56.764Z,15.80
2019-04-11T10:48:36.526Z,46.13
2019-04-11T10:50:56.146Z,23.08
2019-04-11T10:53:22.907Z,24.97
2019-04-11T10:55:51.645Z,18.30
2019-04-11T10:58:31.040Z,24.07
2019-04-11T11:00:58.200Z,18.57
2019-04-11T11:03:31.829Z,26.93
2019-04-11T11:06:03.205Z,16.27
2019-04-11T11:08:39.791Z,15.77
2019-04-11T11:11:14.813Z,15.33
2019-04-11T11:13:40.898Z,13.57
2019-04-11T11:16:08.914Z,14.77
2019-04-11T11:19:03.249Z,30.35
2019-04-11T11:21:05.566Z,15.03
2019-04-11T11:23:50.641Z,16.37
2019-04-11T11:26:19.796Z,14.37
2019-04-11T11:28:50.902Z,19.57
2019-04-11T11:31:18.126Z,14.07
2019-04-11T11:33:45.103Z,12.33
2019-04-11T11:36:19.343Z,16.47
2019-04-11T11:39:00.856Z,18.40
2019-04-11T11:41:46.909Z,15.97
2019-04-11T11:44:14.470Z,16.35
2019-04-11T11:47:03.163Z,13.10
2019-04-11T11:49:41.832Z,12.10
2019-04-11T11:52:04.380Z,16.95
2019-04-11T11:54:31.954Z,13.23
2019-04-11T11:56:59.593Z,17.10
2019-04-11T11:59:29.781Z,17.00
2019-04-11T12:02:00.587Z,11.33
2019-04-11T12:04:32.951Z,14.27
2019-04-11T12:07:01.817Z,13.20
2019-04-11T12:09:24.757Z,14.80
2019-04-11T12:11:53.968Z,13.13
2019-04-11T12:14:22.832Z,11.87
2019-04-11T12:16:54.996Z,14.63
2019-04-11T12:19:21.419Z,18.50
2019-04-11T12:21:48.851Z,13.97
2019-04-11T12:24:19.680Z,13.30
2019-04-11T12:26:49.880Z,10.70
2019-04-11T12:29:36.503Z,18.53
2019-04-11T12:32:22.312Z,12.57
2019-04-11T12:35:06.110Z,13.37
2019-04-11T12:37:36.019Z,12.80
2019-04-11T12:40:16.683Z,13.50
2019-04-11T12:42:45.062Z,14.13
2019-04-11T12:45:18.415Z,14.53
2019-04-11T12:47:45.991Z,11.90
2019-04-11T12:50:31.944Z,15.23
2019-04-11T12:52:59.744Z,12.63
2019-04-11T12:55:30.107Z,11.97
2019-04-11T12:58:12.556Z,13.70
2019-04-11T13:00:43.074Z,24.33
2019-04-11T13:03:28.547Z,14.40
2019-04-11T13:05:59.670Z,33.00
2019-04-11T13:08:45.465Z,12.77
2019-04-11T13:11:13.045Z,15.33
2019-04-11T13:13:41.390Z,11.33
2019-04-11T13:16:12.340Z,14.53
2019-04-11T13:18:51.846Z,12.83
2019-04-11T13:21:19.459Z,17.27
2019-04-11T13:23:53.394Z,12.10
2019-04-11T13:26:32.876Z,12.97
2019-04-11T13:29:09.161Z,14.33
2019-04-11T13:31:45.836Z,71.23
2019-04-11T13:34:13.415Z,13.27
2019-04-11T13:36:41.760Z,12.93
2019-04-11T13:39:09.378Z,16.70
2019-04-11T13:41:51.716Z,11.70
2019-04-11T13:44:19.332Z,12.50
2019-04-11T13:46:50.603Z,13.10
2019-04-11T13:49:26.892Z,12.43
2019-04-11T13:52:12.729Z,14.33
2019-04-11T13:54:59.919Z,12.47
2019-04-11T13:57:27.506Z,19.03
2019-04-11T14:00:13.962Z,12.18
2019-04-11T14:02:51.028Z,10.00
2019-04-11T14:05:11.762Z,11.63
2019-04-11T14:07:39.383Z,8.87
2019-04-11T14:10:12.901Z,12.25
2019-04-11T14:12:40.779Z,11.10
2019-04-11T14:15:08.392Z,9.93
2019-04-11T14:17:36.742Z,8.27
2019-04-11T14:20:29.266Z,10.33
2019-04-11T14:22:52.414Z,12.77
2019-04-11T14:25:25.932Z,11.43
2019-04-11T14:27:53.517Z,10.77
2019-04-11T14:30:39.389Z,14.00
2019-04-11T14:33:06.965Z,10.10
2019-04-11T14:35:37.259Z,9.27
2019-04-11T14:38:10.770Z,15.10
2019-04-11T14:40:41.559Z,11.40
2019-04-11T14:43:24.094Z,9.53
2019-04-11T14:45:51.650Z,10.17
2019-04-11T14:48:19.228Z,10.37
2019-04-11T14:50:56.530Z,11.23
2019-04-11T14:53:33.217Z,12.93
2019-04-11T14:56:01.295Z,9.97
2019-04-11T14:58:47.022Z,9.13
2019-04-11T15:01:17.492Z,10.57
2019-04-11T15:03:45.071Z,9.83
2019-04-11T15:06:14.583Z,9.80
2019-04-11T15:08:42.912Z,13.63
2019-04-11T15:11:13.135Z,11.23
2019-04-11T15:13:40.716Z,9.27
2019-04-11T15:16:10.857Z,9.87
2019-04-11T15:18:36.708Z,11.03
2019-04-11T15:21:06.778Z,11.20
2019-04-11T15:23:32.682Z,8.67
2019-04-11T15:26:09.166Z,10.70
2019-04-11T15:28:36.772Z,10.63
2019-04-11T15:31:22.569Z,10.50
2019-04-11T15:33:50.178Z,8.97
2019-04-11T15:36:17.764Z,10.60
2019-04-11T15:38:47.791Z,9.23
2019-04-11T15:41:15.439Z,10.38
2019-04-11T15:43:48.507Z,10.40
2019-04-11T15:46:18.598Z,10.00
2019-04-11T15:49:05.784Z,9.53
2019-04-11T15:51:35.077Z,8.57
2019-04-11T15:54:13.816Z,9.10
2019-04-11T15:56:53.142Z,11.93
2019-04-11T15:59:43.762Z,9.10
2019-04-11T16:02:15.910Z,9.03
2019-04-11T16:04:46.446Z,8.90
2019-04-11T16:07:14.024Z,9.27
2019-04-11T16:09:42.148Z,11.77
2019-04-11T16:12:28.109Z,8.33
2019-04-11T16:15:11.539Z,9.07
2019-04-11T16:17:58.099Z,9.43
2019-04-11T16:20:25.437Z,11.00
2019-04-11T16:22:58.548Z,9.23
2019-04-11T16:25:28.929Z,9.80
2019-04-11T16:27:53.823Z,9.17
2019-04-11T16:30:22.162Z,7.37
2019-04-11T16:32:58.878Z,10.23
2019-04-11T16:35:33.243Z,12.70
2019-04-11T16:38:00.903Z,10.43
2019-04-11T16:40:37.292Z,11.20
2019-04-11T16:43:04.870Z,13.83
2019-04-11T16:45:54.581Z,10.97
2019-04-11T16:48:18.442Z,8.70
2019-04-11T16:50:46.785Z,9.30
2019-04-11T16:53:14.476Z,11.83
2019-04-11T16:55:43.575Z,7.63
2019-04-11T16:58:10.400Z,12.27
2019-04-11T17:00:38.028Z,10.37
2019-04-11T17:03:05.607Z,12.57
2019-04-11T17:05:33.188Z,11.13
2019-04-11T17:08:06.592Z,8.93
2019-04-11T17:10:52.072Z,12.13
2019-04-11T17:13:19.697Z,12.27
2019-04-11T17:15:47.273Z,11.15
2019-04-11T17:18:14.855Z,10.83
2019-04-11T17:20:42.475Z,9.07
2019-04-11T17:23:10.049Z,13.23
2019-04-11T17:25:37.631Z,8.77
2019-04-11T17:28:05.687Z,10.70
2019-04-11T17:30:33.261Z,9.25
2019-04-11T17:33:00.852Z,23.00
2019-04-11T17:35:31.573Z,10.20
2019-04-11T17:37:56.583Z,10.63
2019-04-11T17:40:24.929Z,9.35
2019-04-11T17:42:52.554Z,9.87
2019-04-11T17:45:20.132Z,9.80
2019-04-11T17:47:47.703Z,9.23
2019-04-11T17:50:15.806Z,12.43
2019-04-11T17:52:43.428Z,10.40
2019-04-11T17:55:11.010Z,10.53
2019-04-11T17:57:38.640Z,10.83
2019-04-11T18:00:06.216Z,10.73
2019-04-11T18:02:33.801Z,12.23
2019-04-11T18:05:01.434Z,9.80
2019-04-11T18:07:29.025Z,11.73
2019-04-11T18:09:56.761Z,10.13
2019-04-11T18:12:26.207Z,12.63
2019-04-11T18:14:51.814Z,12.53
2019-04-11T18:17:19.399Z,12.03
2019-04-11T18:19:47.032Z,11.17
2019-04-11T18:22:14.611Z,12.27
2019-04-11T18:24:42.197Z,10.30
2019-04-11T18:27:10.895Z,11.03
2019-04-11T18:29:38.442Z,12.57
2019-04-11T18:32:06.784Z,9.53
2019-04-11T18:34:34.418Z,9.57
2019-04-11T18:37:02.663Z,10.53
2019-04-11T18:39:29.584Z,13.63
2019-04-11T18:41:57.732Z,11.40
2019-04-11T18:44:24.794Z,12.10
2019-04-11T18:46:52.375Z,11.23
2019-04-11T18:49:21.746Z,14.37
2019-04-11T18:51:50.807Z,11.80
2019-04-11T18:54:16.311Z,15.47
2019-04-11T18:56:44.734Z,11.67
2019-04-11T18:59:12.316Z,11.97
2019-04-11T19:01:40.159Z,12.47
2019-04-11T19:04:11.669Z,15.83
2019-04-11T19:06:35.094Z,13.10
2019-04-11T19:09:02.672Z,10.63
2019-04-11T19:11:30.302Z,12.60
2019-04-11T19:13:57.869Z,11.37
2019-04-11T19:16:25.484Z,12.93
2019-04-11T19:18:53.062Z,15.43
2019-04-11T19:21:21.262Z,13.93
2019-04-11T19:23:48.255Z,11.50
2019-04-11T19:26:15.916Z,13.77
2019-04-11T19:28:43.499Z,13.30
2019-04-11T19:31:12.425Z,13.82
2019-04-11T19:33:40.133Z,13.87
2019-04-11T19:36:10.118Z,14.07
2019-04-11T19:38:35.769Z,15.13
2019-04-11T19:41:03.398Z,17.03
2019-04-11T19:43:30.975Z,17.25
2019-04-11T19:45:58.810Z,13.37
2019-04-11T19:48:26.218Z,13.40
2019-04-11T19:50:53.794Z,18.00
2019-04-11T19:53:21.370Z,16.90
2019-04-11T19:55:52.237Z,18.77
2019-04-11T19:58:17.578Z,16.70
2019-04-11T20:00:47.273Z,15.83
2019-04-11T20:03:12.805Z,19.43
2019-04-11T20:05:40.381Z,20.17
2019-04-11T20:08:07.964Z,17.10
2019-04-11T20:10:36.364Z,15.33
2019-04-11T20:13:03.938Z,20.20
2019-04-11T20:15:37.058Z,16.30
2019-04-11T20:17:59.137Z,19.30
2019-04-11T20:20:26.728Z,15.63
2019-04-11T20:22:59.122Z,15.50
2019-04-11T20:25:21.949Z,17.40
2019-04-11T20:27:50.661Z,16.53
2019-04-11T20:30:17.107Z,17.50
2019-04-11T20:32:44.763Z,20.03
2019-04-11T20:35:12.343Z,15.37
2019-04-11T20:37:44.489Z,19.25
2019-04-11T20:40:08.317Z,19.13
2019-04-11T20:42:35.891Z,18.53
2019-04-11T20:45:03.481Z,16.43
2019-04-11T20:47:31.656Z,20.73
2019-04-11T20:50:06.676Z,16.83
2019-04-11T20:52:26.796Z,16.13
2019-04-11T20:54:54.422Z,16.93
2019-04-11T20:57:25.837Z,16.30
2019-04-11T20:59:49.587Z,20.20
2019-04-11T21:02:17.225Z,20.57
2019-04-11T21:04:44.803Z,15.93
2019-04-11T21:07:12.377Z,16.43
2019-04-11T21:09:40.012Z,14.77
2019-04-11T21:12:08.189Z,15.97
2019-04-11T21:14:35.174Z,18.77
2019-04-11T21:17:03.602Z,17.60
2019-04-11T21:19:31.184Z,19.13
2019-04-11T21:21:58.767Z,16.17
2019-04-11T21:24:26.391Z,18.90
2019-04-11T21:26:53.973Z,20.20
2019-04-11T21:29:21.546Z,16.90
2019-04-11T21:31:49.539Z,15.87
2019-04-11T21:34:17.888Z,14.70
2019-04-11T21:36:45.466Z,15.57
2019-04-11T21:39:13.094Z,16.05
2019-04-11T21:41:40.674Z,14.73
2019-04-11T21:44:09.036Z,15.77
2019-04-11T21:46:38.469Z,16.65
2019-04-11T21:49:06.428Z,15.93
2019-04-11T21:51:31.816Z,15.67
2019-04-11T21:53:59.705Z,16.27
2019-04-11T21:56:27.279Z,16.83
2019-04-11T21:58:54.857Z,15.00
2019-04-11T22:01:24.818Z,14.33
2019-04-11T22:03:52.274Z,15.40
2019-04-11T22:06:17.649Z,14.70
2019-04-11T22:08:46.315Z,16.03
2019-04-11T22:11:14.154Z,15.53
2019-04-11T22:13:41.727Z,18.43
2019-04-11T22:16:13.424Z,20.43
2019-04-11T22:18:36.922Z,16.20
2019-04-11T22:21:04.494Z,17.33
2019-04-11T22:23:32.146Z,17.07
2019-04-11T22:25:59.735Z,13.77
2019-04-11T22:28:27.301Z,15.83
2019-04-11T22:30:55.692Z,14.17
2019-04-11T22:33:24.828Z,16.60
2019-04-11T22:35:50.071Z,16.97
2019-04-11T22:38:17.678Z,16.23
2019-04-11T22:40:45.250Z,15.40
2019-04-11T22:43:24.208Z,19.63
2019-04-11T22:45:41.549Z,17.60
2019-04-11T22:48:09.388Z,17.63
2019-04-11T22:50:40.269Z,14.77
2019-04-11T22:53:04.331Z,15.07
2019-04-11T22:55:31.906Z,19.27
2019-04-11T22:57:59.489Z,16.20
2019-04-11T23:00:27.114Z,17.57
2019-04-11T23:02:54.690Z,16.67
2019-04-11T23:05:22.274Z,16.20
2019-04-11T23:07:50.515Z,17.23
2019-04-11T23:10:18.095Z,16.37
2019-04-11T23:12:45.794Z,18.73
2019-04-11T23:15:15.063Z,18.62
2019-04-11T23:17:44.026Z,17.00
2019-04-11T23:20:11.920Z,16.07
2019-04-11T23:22:40.055Z,16.27
2019-04-11T23:25:05.473Z,16.10
2019-04-11T23:27:33.057Z,15.97
2019-04-11T23:30:00.665Z,17.67
2019-04-11T23:32:29.007Z,13.33
2019-04-11T23:34:56.577Z,16.77
2019-04-11T23:37:24.195Z,19.08
2019-04-11T23:39:51.783Z,16.30
2019-04-11T23:42:19.696Z,14.63
2019-04-11T23:44:47.944Z,17.13
2019-04-11T23:47:14.906Z,19.05
2019-04-11T23:49:42.482Z,18.80
2019-04-11T23:52:10.874Z,17.17
2019-04-11T23:54:38.452Z,17.23
2019-04-11T23:57:06.031Z,17.30
2019-04-11T23:59:33.640Z,20.30
